Time;durP1;ratioP1;P1;durP2;ratioP2;P2;SDS_P1;SDS_P2;PMS_P1;PMS_P2;Temp;Humidity;BMP_temperature;BMP_pressure;BME280_temperature;BME280_humidity;BME280_pressure;Samples;Min_cycle;Max_cycle;Signal;HPM_P1;HPM_P2
2022/03/12 00:01:29;;;;;;;8.70;5.33;;;0.70;58.50;;;;;;5067619;28;20049;-79
2022/03/12 00:03:58;;;;;;;12.50;6.37;;;0.60;58.60;;;;;;5067702;28;20053;-75
2022/03/12 00:06:24;;;;;;;6.60;4.57;;;0.60;58.80;;;;;;5069412;28;20127;-75
2022/03/12 00:08:53;;;;;;;6.93;5.90;;;0.50;59.00;;;;;;5068308;28;20045;-75
2022/03/12 00:11:23;;;;;;;9.47;4.13;;;0.50;59.00;;;;;;5065174;28;20050;-76
2022/03/12 00:13:50;;;;;;;6.20;5.20;;;0.40;59.10;;;;;;5057772;28;20048;-75
2022/03/12 00:16:22;;;;;;;9.43;3.90;;;0.40;59.30;;;;;;5060254;28;20049;-75
2022/03/12 00:18:52;;;;;;;6.90;4.18;;;0.30;59.40;;;;;;5060974;28;20048;-76
2022/03/12 00:21:21;;;;;;;12.13;5.43;;;0.40;59.50;;;;;;5058395;28;20091;-76
2022/03/12 00:23:49;;;;;;;10.73;4.90;;;0.40;59.50;;;;;;5056400;28;20041;-76
2022/03/12 00:26:16;;;;;;;8.77;5.57;;;0.30;59.60;;;;;;5056511;28;20487;-75
2022/03/12 00:28:45;;;;;;;6.57;5.33;;;0.30;59.90;;;;;;5055723;28;20052;-75
2022/03/12 00:31:12;;;;;;;7.13;4.30;;;0.30;60.20;;;;;;5056113;28;20044;-75
2022/03/12 00:33:39;;;;;;;6.77;5.00;;;0.20;60.50;;;;;;5055063;28;20045;-76
2022/03/12 00:36:07;;;;;;;4.37;3.90;;;0.20;60.70;;;;;;5055904;28;20114;-75
2022/03/12 00:38:33;;;;;;;8.57;4.30;;;0.10;61.00;;;;;;5055338;28;20099;-76
2022/03/12 00:41:04;;;;;;;8.33;6.07;;;0.00;61.30;;;;;;5055566;28;20098;-76
2022/03/12 00:43:31;;;;;;;10.67;5.30;;;0.00;61.50;;;;;;5055812;28;20051;-75
2022/03/12 00:45:58;;;;;;;7.70;4.83;;;0.00;61.80;;;;;;5055513;28;20182;-75
2022/03/12 00:48:25;;;;;;;9.53;4.90;;;-0.10;62.00;;;;;;5055647;28;20388;-75
2022/03/12 00:50:52;;;;;;;8.77;5.33;;;-0.10;62.20;;;;;;5055575;28;20049;-76
2022/03/12 00:53:18;;;;;;;11.80;5.50;;;-0.10;62.40;;;;;;5056254;28;20521;-76
2022/03/12 00:55:45;;;;;;;7.87;4.93;;;-0.10;62.50;;;;;;5055211;28;20041;-75
2022/03/12 00:58:13;;;;;;;6.87;3.90;;;-0.20;62.60;;;;;;5055663;28;20044;-76
2022/03/12 01:00:40;;;;;;;8.07;4.00;;;-0.20;62.70;;;;;;5055032;28;20087;-75
2022/03/12 01:03:08;;;;;;;8.00;3.23;;;-0.20;62.70;;;;;;5055535;28;20077;-75
2022/03/12 01:05:52;;;;;;;7.37;5.83;;;-0.20;62.50;;;;;;5055590;28;20041;-75
2022/03/12 01:08:20;;;;;;;4.77;4.23;;;-0.20;62.50;;;;;;5046411;28;20045;-75
2022/03/12 01:10:47;;;;;;;4.77;4.40;;;-0.30;62.70;;;;;;5055959;28;20045;-75
2022/03/12 01:13:14;;;;;;;6.43;4.30;;;-0.30;62.80;;;;;;5056339;28;20099;-75
2022/03/12 01:15:41;;;;;;;6.03;5.40;;;-0.30;62.60;;;;;;5056210;28;20063;-76
2022/03/12 01:18:12;;;;;;;8.47;5.33;;;-0.30;62.60;;;;;;5054555;28;20110;-76
2022/03/12 01:20:39;;;;;;;7.40;5.07;;;-0.30;62.70;;;;;;5054836;28;20403;-76
2022/03/12 01:23:06;;;;;;;11.13;6.27;;;-0.30;62.70;;;;;;5054585;28;20049;-75
2022/03/12 01:25:33;;;;;;;6.17;4.33;;;-0.40;62.80;;;;;;5054495;28;20059;-75
2022/03/12 01:28:00;;;;;;;5.87;5.30;;;-0.30;63.00;;;;;;5054170;28;20088;-75
2022/03/12 01:30:28;;;;;;;5.00;4.53;;;-0.40;63.00;;;;;;5053929;28;20049;-74
2022/03/12 01:32:55;;;;;;;12.10;5.83;;;-0.40;63.10;;;;;;5053875;28;20553;-75
2022/03/12 01:35:24;;;;;;;9.53;4.83;;;-0.40;63.20;;;;;;5053956;28;20102;-75
2022/03/12 01:37:51;;;;;;;6.23;5.57;;;-0.40;63.10;;;;;;5054034;28;20060;-76
2022/03/12 01:40:18;;;;;;;7.37;5.10;;;-0.40;63.10;;;;;;5054255;28;20110;-76
2022/03/12 01:42:44;;;;;;;10.10;5.90;;;-0.40;63.00;;;;;;5053963;28;20123;-76
2022/03/12 01:45:13;;;;;;;8.43;5.53;;;-0.50;63.00;;;;;;5053952;28;20083;-75
2022/03/12 01:47:41;;;;;;;11.13;6.73;;;-0.50;63.00;;;;;;5054622;28;20048;-73
2022/03/12 01:50:09;;;;;;;7.50;5.20;;;-0.40;63.00;;;;;;5052393;28;20053;-75
2022/03/12 01:52:37;;;;;;;9.77;5.27;;;-0.50;62.90;;;;;;5053539;28;20040;-75
2022/03/12 01:55:06;;;;;;;10.93;5.00;;;-0.50;63.00;;;;;;5053842;28;20080;-75
2022/03/12 01:57:32;;;;;;;5.10;4.23;;;-0.50;63.10;;;;;;5053910;28;20051;-76
2022/03/12 01:59:59;;;;;;;10.90;5.77;;;-0.60;63.20;;;;;;5053828;28;20049;-75
2022/03/12 02:02:27;;;;;;;7.40;4.13;;;-0.50;63.20;;;;;;5057321;28;20055;-75
2022/03/12 02:04:55;;;;;;;7.13;4.97;;;-0.50;63.00;;;;;;5055583;28;20056;-75
2022/03/12 02:07:22;;;;;;;4.57;4.27;;;-0.60;63.20;;;;;;5053743;28;20049;-75
2022/03/12 02:09:50;;;;;;;10.97;6.70;;;-0.60;63.40;;;;;;5053029;28;20057;-76
2022/03/12 02:12:17;;;;;;;7.10;4.50;;;-0.60;63.50;;;;;;5052667;28;20080;-77
2022/03/12 02:14:43;;;;;;;7.13;5.37;;;-0.70;63.50;;;;;;5053378;28;20111;-75
2022/03/12 02:17:12;;;;;;;6.97;4.83;;;-0.70;63.70;;;;;;5051839;28;20041;-76
2022/03/12 02:19:40;;;;;;;6.27;4.90;;;-0.70;63.60;;;;;;5052695;28;20049;-73
2022/03/12 02:22:09;;;;;;;12.33;5.80;;;-0.80;63.80;;;;;;5053460;28;20083;-76
2022/03/12 02:24:38;;;;;;;6.60;4.73;;;-0.80;64.20;;;;;;5052740;28;20449;-76
2022/03/12 02:27:08;;;;;;;7.13;5.77;;;-0.80;64.20;;;;;;5053289;28;20405;-75
2022/03/12 02:29:35;;;;;;;10.63;5.13;;;-0.80;64.20;;;;;;5053089;28;20061;-75
2022/03/12 02:32:06;;;;;;;7.23;4.77;;;-0.80;64.40;;;;;;5053162;28;20098;-76
2022/03/12 02:34:38;;;;;;;10.05;4.82;;;-0.80;64.80;;;;;;5053037;28;20045;-76
2022/03/12 02:37:06;;;;;;;8.77;4.80;;;-0.80;64.70;;;;;;5052993;28;20045;-74
2022/03/12 02:39:37;;;;;;;7.97;4.20;;;-0.90;64.70;;;;;;5053144;28;20134;-75
2022/03/12 02:42:07;;;;;;;6.80;5.30;;;-0.90;64.80;;;;;;5053083;28;20122;-75
2022/03/12 02:44:34;;;;;;;6.10;5.20;;;-0.90;65.10;;;;;;5053013;28;20088;-75
2022/03/12 02:47:16;;;;;;;8.70;4.53;;;-1.00;65.00;;;;;;5052707;28;20505;-75
2022/03/12 02:49:48;;;;;;;6.38;4.53;;;-1.00;65.20;;;;;;5052559;28;20106;-75
2022/03/12 02:52:16;;;;;;;6.97;5.13;;;-1.10;65.50;;;;;;5052881;28;20052;-75
2022/03/12 02:54:45;;;;;;;9.30;4.87;;;-1.10;65.70;;;;;;5052528;28;20495;-75
2022/03/12 02:57:13;;;;;;;8.40;5.37;;;-1.10;65.70;;;;;;5053147;28;20095;-75
2022/03/12 02:59:42;;;;;;;7.70;3.30;;;-1.10;65.90;;;;;;5032940;28;20050;-75
2022/03/12 03:02:10;;;;;;;3.90;3.23;;;-1.20;66.10;;;;;;5035699;28;20130;-75
2022/03/12 03:04:39;;;;;;;5.40;4.73;;;-1.10;65.90;;;;;;5036698;28;20123;-76
2022/03/12 03:07:07;;;;;;;4.90;3.47;;;-1.20;66.00;;;;;;5047648;28;20143;-76
2022/03/12 03:09:33;;;;;;;3.90;3.40;;;-1.20;66.20;;;;;;5055693;28;20420;-75
2022/03/12 03:12:03;;;;;;;10.50;5.10;;;-1.20;66.00;;;;;;5055655;28;20092;-76
2022/03/12 03:14:31;;;;;;;12.60;6.00;;;-1.20;65.90;;;;;;5056412;28;20049;-75
2022/03/12 03:16:59;;;;;;;8.70;5.60;;;-1.20;66.20;;;;;;5055254;28;20049;-75
2022/03/12 03:19:26;;;;;;;4.67;4.27;;;-1.20;66.30;;;;;;5055342;28;20049;-75
2022/03/12 03:21:54;;;;;;;9.17;4.57;;;-1.20;66.30;;;;;;5055559;28;20446;-76
2022/03/12 03:24:22;;;;;;;7.20;5.33;;;-1.20;66.00;;;;;;5055653;28;20449;-75
2022/03/12 03:26:54;;;;;;;6.60;4.47;;;-1.20;65.90;;;;;;5055168;28;20094;-75
2022/03/12 03:29:21;;;;;;;12.10;4.97;;;-1.20;65.90;;;;;;5035967;28;20073;-75
2022/03/12 03:31:50;;;;;;;7.73;3.73;;;-1.20;66.00;;;;;;5049971;28;20553;-76
2022/03/12 03:34:18;;;;;;;9.10;6.83;;;-1.30;66.00;;;;;;5055176;28;20041;-75
2022/03/12 03:36:46;;;;;;;12.40;6.67;;;-1.20;66.20;;;;;;5016295;28;20054;-76
2022/03/12 03:39:12;;;;;;;6.63;5.63;;;-1.20;66.10;;;;;;5015972;28;20135;-75
2022/03/12 03:41:39;;;;;;;5.87;5.37;;;-1.20;66.10;;;;;;5015722;28;20073;-75
2022/03/12 03:44:06;;;;;;;6.77;5.50;;;-1.20;65.90;;;;;;5016004;28;20081;-76
2022/03/12 03:46:34;;;;;;;5.27;4.67;;;-1.20;66.00;;;;;;5015886;28;20053;-76
2022/03/12 03:49:04;;;;;;;7.10;4.93;;;-1.20;66.00;;;;;;5015346;28;20484;-75
2022/03/12 03:51:32;;;;;;;9.03;4.30;;;-1.30;65.80;;;;;;5015327;28;20136;-74
2022/03/12 03:53:58;;;;;;;14.83;5.53;;;-1.20;65.80;;;;;;5015749;28;20064;-76
2022/03/12 03:56:25;;;;;;;5.80;4.97;;;-1.10;65.60;;;;;;5015607;28;20050;-76
2022/03/12 03:58:52;;;;;;;6.80;4.30;;;-1.10;65.60;;;;;;5015622;28;20053;-77
2022/03/12 04:01:22;;;;;;;7.60;5.40;;;-1.20;65.70;;;;;;5015632;28;20073;-76
2022/03/12 04:03:49;;;;;;;10.37;6.30;;;-1.20;65.90;;;;;;5015451;28;20081;-76
2022/03/12 04:06:19;;;;;;;8.07;4.67;;;-1.20;65.80;;;;;;5016087;28;20077;-76
2022/03/12 04:08:46;;;;;;;5.43;3.83;;;-1.30;65.90;;;;;;5016072;28;20108;-75
2022/03/12 04:11:16;;;;;;;4.10;3.67;;;-1.30;66.20;;;;;;5015817;28;20483;-75
2022/03/12 04:13:43;;;;;;;6.70;4.77;;;-1.30;66.30;;;;;;5014425;28;20053;-75
2022/03/12 04:16:13;;;;;;;6.63;4.67;;;-1.20;66.10;;;;;;5015319;28;20129;-75
2022/03/12 04:18:42;;;;;;;7.10;6.40;;;-1.20;66.10;;;;;;5015332;28;20074;-75
2022/03/12 04:21:10;;;;;;;7.63;5.53;;;-1.30;66.10;;;;;;5014533;28;20550;-75
2022/03/12 04:23:38;;;;;;;8.60;5.07;;;-1.20;66.10;;;;;;5014838;28;20545;-75
2022/03/12 04:26:05;;;;;;;12.17;5.90;;;-1.20;66.10;;;;;;5014485;28;20519;-76
2022/03/12 04:28:33;;;;;;;10.00;5.00;;;-1.30;66.10;;;;;;5003701;28;20073;-76
2022/03/12 04:31:00;;;;;;;6.30;5.30;;;-1.20;66.20;;;;;;5014003;28;20492;-75
2022/03/12 04:33:28;;;;;;;13.77;7.57;;;-1.30;66.20;;;;;;5014826;28;20411;-76
2022/03/12 04:35:56;;;;;;;6.00;5.40;;;-1.40;66.70;;;;;;5039804;28;20053;-76
2022/03/12 04:38:23;;;;;;;5.57;4.40;;;-1.40;67.00;;;;;;5054622;28;20045;-75
2022/03/12 04:40:51;;;;;;;6.20;4.23;;;-1.40;67.20;;;;;;5034444;28;20100;-75
2022/03/12 04:43:18;;;;;;;8.33;5.90;;;-1.40;67.30;;;;;;5053777;28;20049;-75
2022/03/12 04:45:45;;;;;;;11.10;4.77;;;-1.50;67.50;;;;;;5054434;28;20491;-75
2022/03/12 04:48:15;;;;;;;6.57;5.07;;;-1.60;67.80;;;;;;5057250;28;20079;-75
2022/03/12 04:50:42;;;;;;;11.50;5.27;;;-1.60;68.10;;;;;;5058870;28;20055;-75
2022/03/12 04:53:09;;;;;;;5.90;4.07;;;-1.60;68.30;;;;;;5055038;28;20091;-76
2022/03/12 04:55:36;;;;;;;5.63;3.83;;;-1.70;68.60;;;;;;5054053;28;20073;-75
2022/03/12 04:58:05;;;;;;;5.83;5.23;;;-1.70;68.90;;;;;;5054494;28;20084;-75
2022/03/12 05:00:36;;;;;;;7.33;4.93;;;-1.70;68.90;;;;;;5054305;28;20057;-76
2022/03/12 05:03:07;;;;;;;5.63;4.78;;;-1.70;69.00;;;;;;5053167;28;20045;-75
2022/03/12 05:05:34;;;;;;;6.10;5.60;;;-1.70;69.20;;;;;;5054215;28;20406;-79
2022/03/12 05:08:00;;;;;;;9.30;5.07;;;-1.80;69.40;;;;;;5054146;28;20076;-75
2022/03/12 05:10:29;;;;;;;4.27;3.87;;;-1.80;69.80;;;;;;5054007;28;20433;-76
2022/03/12 05:13:00;;;;;;;5.83;4.97;;;-1.90;70.00;;;;;;5053684;28;20190;-74
2022/03/12 05:15:37;;;;;;;12.43;6.13;;;-1.90;70.10;;;;;;5053935;28;20052;-74
2022/03/12 05:18:06;;;;;;;5.13;4.43;;;-1.90;70.10;;;;;;5053960;28;20114;-75
2022/03/12 05:20:34;;;;;;;10.13;6.00;;;-1.90;70.30;;;;;;5053990;28;20061;-75
2022/03/12 05:23:00;;;;;;;5.17;4.67;;;-1.90;70.20;;;;;;5053886;28;20048;-75
2022/03/12 05:25:29;;;;;;;10.03;5.90;;;-1.90;70.30;;;;;;5053606;28;20080;-76
2022/03/12 05:27:56;;;;;;;7.43;4.97;;;-1.90;70.50;;;;;;5053849;28;20079;-76
2022/03/12 05:30:23;;;;;;;6.40;4.50;;;-1.90;70.70;;;;;;5053639;28;20404;-75
2022/03/12 05:32:51;;;;;;;7.97;4.67;;;-1.90;70.60;;;;;;5053541;28;20045;-76
2022/03/12 05:35:19;;;;;;;8.30;5.83;;;-1.80;70.30;;;;;;5052710;28;20041;-76
2022/03/12 05:37:46;;;;;;;7.40;4.70;;;-1.80;70.00;;;;;;5053143;28;20079;-77
2022/03/12 05:40:18;;;;;;;8.40;5.20;;;-1.80;69.90;;;;;;5052917;28;20045;-74
2022/03/12 05:42:46;;;;;;;9.90;5.10;;;-1.80;70.10;;;;;;5052942;28;20073;-74
2022/03/12 05:45:14;;;;;;;8.00;4.47;;;-1.80;69.90;;;;;;5056223;28;20044;-74
2022/03/12 05:47:42;;;;;;;6.90;5.30;;;-1.70;69.90;;;;;;5059107;28;20044;-74
2022/03/12 05:50:12;;;;;;;8.10;4.27;;;-1.70;69.90;;;;;;5060824;28;20104;-75
2022/03/12 05:52:40;;;;;;;10.67;5.87;;;-1.60;70.10;;;;;;5060615;28;20051;-75
2022/03/12 05:55:08;;;;;;;9.23;5.60;;;-1.50;70.30;;;;;;5062393;28;20126;-75
2022/03/12 05:57:36;;;;;;;5.93;5.33;;;-1.40;69.90;;;;;;5062155;28;20053;-76
2022/03/12 06:00:04;;;;;;;11.37;4.97;;;-1.20;69.30;;;;;;5061354;28;20049;-76
2022/03/12 06:02:30;;;;;;;10.60;7.37;;;-0.90;69.00;;;;;;5060209;28;20049;-74
2022/03/12 06:04:58;;;;;;;9.00;5.27;;;-0.70;68.20;;;;;;5059718;28;20046;-76
2022/03/12 06:07:27;;;;;;;17.27;6.00;;;-0.50;67.30;;;;;;5058643;28;20053;-76
2022/03/12 06:09:54;;;;;;;7.00;6.13;;;-0.30;66.80;;;;;;5059083;28;20080;-75
2022/03/12 06:12:21;;;;;;;7.13;5.10;;;0.00;65.60;;;;;;5060472;28;20041;-75
2022/03/12 06:14:52;;;;;;;8.73;6.90;;;0.20;65.00;;;;;;5060693;28;20072;-76
2022/03/12 06:17:19;;;;;;;7.15;5.95;;;0.50;63.90;;;;;;5059180;28;20059;-75
2022/03/12 06:19:46;;;;;;;7.73;5.40;;;0.70;63.20;;;;;;5060323;28;20491;-75
2022/03/12 06:22:13;;;;;;;13.43;7.73;;;0.90;62.40;;;;;;5055233;28;20057;-77
2022/03/12 06:24:41;;;;;;;8.77;5.27;;;1.10;61.70;;;;;;5057600;28;20041;-75
2022/03/12 06:27:08;;;;;;;10.30;5.43;;;1.40;61.00;;;;;;5060268;28;20053;-77
2022/03/12 06:29:36;;;;;;;8.07;5.37;;;1.70;60.50;;;;;;5060458;28;20055;-76
2022/03/12 06:32:05;;;;;;;8.73;5.87;;;2.00;59.90;;;;;;5056406;28;20045;-76
2022/03/12 06:34:34;;;;;;;11.13;6.07;;;2.20;59.30;;;;;;5017198;28;1030072;-75
2022/03/12 06:37:02;;;;;;;15.00;6.93;;;2.40;59.00;;;;;;5057162;28;20048;-75
2022/03/12 06:39:28;;;;;;;11.30;6.60;;;2.70;58.50;;;;;;5057585;28;20059;-75
2022/03/12 06:41:57;;;;;;;9.03;6.00;;;2.80;57.90;;;;;;5056999;28;20052;-75
2022/03/12 06:44:32;;;;;;;15.33;7.63;;;3.00;57.50;;;;;;5057151;28;20422;-76
2022/03/12 06:46:59;;;;;;;15.27;6.50;;;3.20;57.00;;;;;;5056428;28;20510;-76
2022/03/12 06:49:26;;;;;;;15.07;7.93;;;3.50;56.40;;;;;;5057328;28;20041;-75
2022/03/12 06:51:53;;;;;;;9.60;6.07;;;3.60;55.90;;;;;;5056140;28;20411;-76
2022/03/12 06:54:20;;;;;;;21.00;9.90;;;3.80;55.80;;;;;;5056310;28;20045;-76
2022/03/12 06:56:47;;;;;;;117.50;66.93;;;3.90;55.20;;;;;;5055142;28;20041;-76
2022/03/12 06:59:15;;;;;;;14.40;10.50;;;4.20;55.40;;;;;;5042724;28;20038;-76
2022/03/12 07:01:42;;;;;;;13.90;7.93;;;4.50;55.10;;;;;;5054962;28;20106;-76
2022/03/12 07:04:10;;;;;;;15.83;8.40;;;4.70;54.10;;;;;;5038159;28;20512;-76
2022/03/12 07:06:37;;;;;;;17.73;9.33;;;4.80;53.30;;;;;;5036218;28;20076;-76
2022/03/12 07:09:04;;;;;;;10.33;7.93;;;5.00;53.00;;;;;;5036815;28;20478;-77
2022/03/12 07:11:31;;;;;;;17.03;8.47;;;5.10;52.60;;;;;;5043259;28;20080;-75
2022/03/12 07:13:58;;;;;;;15.30;8.63;;;5.10;51.90;;;;;;5056500;28;20403;-77
2022/03/12 07:16:26;;;;;;;14.77;9.30;;;5.00;51.60;;;;;;5056367;28;20099;-77
2022/03/12 07:18:53;;;;;;;16.50;9.63;;;5.10;51.40;;;;;;5057508;28;20103;-79
2022/03/12 07:21:19;;;;;;;19.90;10.30;;;5.20;53.60;;;;;;5056614;28;20477;-80
2022/03/12 07:23:46;;;;;;;11.63;9.93;;;5.60;53.40;;;;;;5057186;28;20044;-82
2022/03/12 07:26:13;;;;;;;14.83;7.30;;;5.90;52.50;;;;;;5056937;28;20049;-81
2022/03/12 07:28:41;;;;;;;21.20;9.90;;;6.10;51.50;;;;;;5057244;28;20136;-80
2022/03/12 07:31:08;;;;;;;13.70;7.67;;;6.10;51.00;;;;;;5057061;28;20487;-80
2022/03/12 07:33:37;;;;;;;13.43;9.00;;;6.10;51.10;;;;;;5056817;28;20506;-81
2022/03/12 07:36:04;;;;;;;12.37;8.40;;;6.20;50.40;;;;;;5056962;28;20041;-83
2022/03/12 07:38:31;;;;;;;20.13;9.30;;;6.50;49.70;;;;;;5056421;28;20411;-80
2022/03/12 07:40:58;;;;;;;11.97;7.73;;;6.50;49.10;;;;;;5056038;28;20133;-77
2022/03/12 07:43:24;;;;;;;15.87;8.20;;;6.50;49.20;;;;;;5055676;28;20135;-77
2022/03/12 07:45:51;;;;;;;14.77;8.20;;;6.70;48.40;;;;;;5055756;28;20045;-78
2022/03/12 07:48:17;;;;;;;17.30;7.90;;;6.40;47.60;;;;;;5055778;28;20045;-79
2022/03/12 07:50:47;;;;;;;13.57;7.73;;;6.40;47.80;;;;;;5056248;28;20166;-78
2022/03/12 07:53:13;;;;;;;14.77;8.30;;;6.40;47.70;;;;;;5041968;28;20491;-82
2022/03/12 07:55:40;;;;;;;15.33;8.73;;;6.40;47.50;;;;;;5040104;28;20536;-80
2022/03/12 07:58:07;;;;;;;13.57;7.23;;;6.70;47.30;;;;;;5045979;28;20088;-76
2022/03/12 08:00:35;;;;;;;16.50;8.90;;;7.20;47.00;;;;;;5055819;28;20494;-79
2022/03/12 08:03:01;;;;;;;11.83;7.73;;;7.30;46.20;;;;;;5056426;28;20045;-78
2022/03/12 08:05:28;;;;;;;10.40;6.63;;;7.90;45.80;;;;;;5055192;28;20082;-78
2022/03/12 08:07:56;;;;;;;12.97;7.83;;;7.90;44.70;;;;;;5055361;28;20053;-77
2022/03/12 08:10:24;;;;;;;14.83;8.93;;;7.90;44.60;;;;;;5055250;28;20100;-78
2022/03/12 08:12:50;;;;;;;18.37;8.17;;;8.40;44.30;;;;;;5054633;28;20548;-79
2022/03/12 08:15:19;;;;;;;14.95;7.32;;;8.80;43.70;;;;;;5055090;28;20059;-76
2022/03/12 08:17:47;;;;;;;14.30;7.67;;;9.40;43.20;;;;;;5054074;28;20111;-76
2022/03/12 08:20:14;;;;;;;14.90;8.27;;;9.40;42.40;;;;;;5053977;28;20475;-79
2022/03/12 08:22:44;;;;;;;176.07;100.68;;;9.60;42.10;;;;;;5035341;28;20476;-76
2022/03/12 08:25:14;;;;;;;21.23;11.80;;;10.20;41.90;;;;;;5054350;28;20048;-80
2022/03/12 08:27:41;;;;;;;10.88;7.70;;;10.20;40.30;;;;;;5054598;28;20052;-80
2022/03/12 08:30:09;;;;;;;8.18;6.10;;;10.10;39.90;;;;;;5046726;28;20049;-79
2022/03/12 08:32:36;;;;;;;15.85;7.13;;;10.10;39.10;;;;;;5054169;28;20045;-81
2022/03/12 08:35:05;;;;;;;13.95;7.35;;;9.30;39.00;;;;;;5053767;28;20053;-79
2022/03/12 08:37:32;;;;;;;11.97;6.33;;;9.30;39.60;;;;;;5053843;28;20041;-81
2022/03/12 08:39:58;;;;;;;8.30;6.00;;;8.80;39.20;;;;;;5053238;28;20362;-79
2022/03/12 08:42:26;;;;;;;8.50;4.87;;;8.70;39.00;;;;;;5053813;28;20052;-80
2022/03/12 08:44:53;;;;;;;16.20;7.47;;;8.50;39.00;;;;;;5054520;28;20080;-78
2022/03/12 08:47:19;;;;;;;11.17;6.33;;;8.90;39.40;;;;;;5053960;28;20049;-75
2022/03/12 08:49:46;;;;;;;8.33;5.93;;;8.90;39.20;;;;;;5054658;28;20045;-81
2022/03/12 08:52:13;;;;;;;9.15;6.22;;;9.60;39.10;;;;;;5052890;28;20072;-78
2022/03/12 08:54:39;;;;;;;7.45;5.55;;;10.60;38.20;;;;;;5054027;28;20064;-79
2022/03/12 08:57:06;;;;;;;9.88;5.85;;;10.30;37.00;;;;;;5052963;28;20063;-79
2022/03/12 08:59:34;;;;;;;9.38;5.25;;;10.40;36.50;;;;;;5053338;28;20086;-80
2022/03/12 09:02:01;;;;;;;8.85;6.25;;;10.60;36.50;;;;;;5053873;28;20491;-80
2022/03/12 09:04:27;;;;;;;9.98;5.90;;;10.70;36.00;;;;;;5054106;28;20057;-77
2022/03/12 09:06:54;;;;;;;9.88;5.80;;;11.00;35.80;;;;;;5053700;28;20075;-77
2022/03/12 09:09:21;;;;;;;11.60;6.47;;;11.50;35.50;;;;;;5053654;28;20044;-77
2022/03/12 09:11:47;;;;;;;12.13;6.93;;;11.80;35.10;;;;;;5053378;28;20048;-77
2022/03/12 09:14:14;;;;;;;8.20;6.18;;;11.80;34.30;;;;;;5055823;28;20406;-78
2022/03/12 09:16:42;;;;;;;12.43;6.72;;;11.10;34.70;;;;;;5063891;28;20098;-78
2022/03/12 09:19:09;;;;;;;11.82;6.32;;;11.10;35.00;;;;;;5063362;28;20049;-79
2022/03/12 09:21:37;;;;;;;11.32;6.20;;;11.50;35.00;;;;;;5064322;28;20049;-77
2022/03/12 09:24:04;;;;;;;12.70;6.20;;;11.80;34.90;;;;;;5063127;28;20049;-77
2022/03/12 09:26:33;;;;;;;56.95;34.08;;;12.40;34.20;;;;;;5066801;28;20056;-79
2022/03/12 09:28:59;;;;;;;17.48;11.40;;;13.00;34.50;;;;;;5066496;28;20041;-79
2022/03/12 09:31:29;;;;;;;9.38;6.80;;;12.60;32.60;;;;;;5064196;28;20094;-78
2022/03/12 09:33:57;;;;;;;8.00;5.05;;;12.10;33.20;;;;;;5066476;28;20052;-80
2022/03/12 09:36:24;;;;;;;9.65;5.88;;;12.10;33.40;;;;;;5063469;28;20052;-76
2022/03/12 09:38:50;;;;;;;8.80;4.97;;;11.90;33.60;;;;;;5061308;28;20049;-78
2022/03/12 09:41:17;;;;;;;12.23;7.40;;;11.80;33.70;;;;;;5059018;28;20053;-78
2022/03/12 09:43:44;;;;;;;11.68;5.72;;;11.70;34.30;;;;;;5058260;28;20079;-77
2022/03/12 09:46:10;;;;;;;7.18;5.00;;;11.90;33.50;;;;;;5059518;28;20071;-79
2022/03/12 09:48:37;;;;;;;10.07;5.43;;;12.20;33.60;;;;;;5056137;28;20053;-78
2022/03/12 09:51:05;;;;;;;12.70;7.32;;;13.00;33.40;;;;;;5055054;28;20041;-78
2022/03/12 09:53:34;;;;;;;9.25;5.68;;;13.10;32.50;;;;;;5054616;28;20045;-78
2022/03/12 09:56:00;;;;;;;8.23;5.90;;;12.80;33.10;;;;;;5054353;28;20071;-78
2022/03/12 09:58:27;;;;;;;11.68;5.80;;;13.30;32.50;;;;;;5053476;28;20053;-77
2022/03/12 10:00:54;;;;;;;10.88;5.95;;;14.40;32.30;;;;;;5053968;28;20454;-78
2022/03/12 10:03:23;;;;;;;9.45;5.80;;;14.30;31.70;;;;;;5057543;28;20053;-78
2022/03/12 10:05:49;;;;;;;9.48;5.50;;;15.30;31.20;;;;;;5053084;28;20427;-78
2022/03/12 10:08:17;;;;;;;7.30;4.93;;;16.70;30.20;;;;;;5053740;28;20414;-79
2022/03/12 10:10:45;;;;;;;8.13;4.95;;;17.30;29.40;;;;;;5056053;28;20499;-79
2022/03/12 10:13:11;;;;;;;8.85;5.15;;;17.80;29.10;;;;;;5058411;28;20045;-79
2022/03/12 10:15:38;;;;;;;6.28;5.60;;;17.80;28.60;;;;;;5059053;28;20076;-80
2022/03/12 10:18:06;;;;;;;10.80;6.18;;;17.70;28.90;;;;;;5060603;28;20511;-78
2022/03/12 10:20:33;;;;;;;7.68;5.35;;;17.20;28.60;;;;;;5067660;28;20049;-79
2022/03/12 10:22:59;;;;;;;7.82;5.18;;;17.90;29.10;;;;;;5069961;28;20114;-77
2022/03/12 10:25:28;;;;;;;7.35;5.50;;;17.80;28.30;;;;;;5064141;28;20075;-81
2022/03/12 10:27:54;;;;;;;5.82;4.78;;;17.40;28.20;;;;;;5061092;28;20052;-77
2022/03/12 10:30:22;;;;;;;6.50;4.90;;;17.60;28.60;;;;;;5060136;28;20053;-76
2022/03/12 10:32:50;;;;;;;9.73;5.68;;;17.90;28.70;;;;;;5060183;28;20053;-79
2022/03/12 10:35:20;;;;;;;9.48;5.60;;;19.50;28.00;;;;;;5059615;28;20469;-79
2022/03/12 10:37:48;;;;;;;8.75;5.70;;;19.90;27.10;;;;;;5061285;28;20045;-77
2022/03/12 10:40:17;;;;;;;20.15;14.38;;;21.10;26.90;;;;;;5059627;28;20053;-77
2022/03/12 10:42:51;;;;;;;10.25;7.40;;;22.20;26.60;;;;;;5057946;28;20057;-77
2022/03/12 10:45:18;;;;;;;8.93;5.55;;;21.30;25.50;;;;;;5059861;28;20045;-79
2022/03/12 10:47:47;;;;;;;7.03;4.95;;;20.10;25.80;;;;;;5063983;28;20159;-76
2022/03/12 10:50:17;;;;;;;7.93;5.47;;;19.50;26.10;;;;;;5064596;28;20487;-76
2022/03/12 10:52:48;;;;;;;8.65;5.97;;;18.90;26.70;;;;;;5064513;28;20041;-78
2022/03/12 10:55:18;;;;;;;6.47;4.63;;;18.70;26.80;;;;;;5065112;28;20084;-76
2022/03/12 10:58:01;;;;;;;7.32;4.90;;;18.40;26.80;;;;;;5063604;28;20083;-77
2022/03/12 11:00:30;;;;;;;7.60;5.47;;;18.10;27.20;;;;;;5063620;28;20538;-76
2022/03/12 11:02:58;;;;;;;6.95;4.40;;;18.90;27.20;;;;;;5061379;28;20048;-78
2022/03/12 11:05:27;;;;;;;5.63;3.80;;;18.60;26.30;;;;;;5063309;28;20469;-78
2022/03/12 11:08:15;;;;;;;5.78;4.57;;;18.30;26.30;;;;;;5062610;28;20384;-77
2022/03/12 11:10:54;;;;;;;7.35;4.63;;;18.90;27.00;;;;;;5065595;28;20103;-77
2022/03/12 11:13:29;;;;;;;8.25;5.32;;;20.40;26.30;;;;;;5066040;28;20144;-78
2022/03/12 11:16:12;;;;;;;8.18;4.68;;;21.90;25.50;;;;;;5065423;28;20099;-78
2022/03/12 11:18:46;;;;;;;6.10;4.43;;;23.20;24.90;;;;;;5055224;28;20133;-76
2022/03/12 11:21:15;;;;;;;6.18;3.90;;;22.50;24.00;;;;;;5064360;28;20053;-77
2022/03/12 11:23:43;;;;;;;47.95;32.90;;;21.70;24.20;;;;;;5071183;28;20093;-77
2022/03/12 11:26:10;;;;;;;8.80;6.25;;;21.40;25.20;;;;;;5068136;28;20065;-77
2022/03/12 11:28:38;;;;;;;4.72;4.25;;;20.00;24.40;;;;;;5067394;28;20037;-77
2022/03/12 11:31:06;;;;;;;8.68;3.90;;;20.40;24.80;;;;;;5063840;28;20052;-78
2022/03/12 11:33:34;;;;;;;5.22;3.42;;;21.30;24.50;;;;;;5057777;28;20045;-77
2022/03/12 11:36:03;;;;;;;5.32;4.05;;;20.40;24.50;;;;;;5054948;28;20073;-77
2022/03/12 11:38:30;;;;;;;5.43;3.97;;;19.80;24.80;;;;;;5059376;28;20049;-77
2022/03/12 11:41:06;;;;;;;7.30;4.18;;;19.80;24.70;;;;;;5066472;28;20075;-77
2022/03/12 11:43:40;;;;;;;3.45;3.15;;;19.20;25.20;;;;;;5063716;28;20106;-78
2022/03/12 11:46:09;;;;;;;6.18;4.63;;;19.90;25.10;;;;;;5067164;28;20071;-77
2022/03/12 11:48:38;;;;;;;5.78;3.58;;;20.60;24.50;;;;;;5055931;28;20410;-78
2022/03/12 11:51:17;;;;;;;4.68;3.58;;;20.50;24.20;;;;;;5055576;28;20060;-79
2022/03/12 11:53:45;;;;;;;8.30;4.43;;;20.30;24.50;;;;;;5055412;28;20072;-77
2022/03/12 11:56:13;;;;;;;4.85;3.63;;;20.30;24.30;;;;;;5054847;28;20509;-77
2022/03/12 11:58:41;;;;;;;5.85;4.18;;;19.40;24.40;;;;;;5055321;28;20099;-78
2022/03/12 12:01:11;;;;;;;8.23;4.85;;;19.20;25.10;;;;;;5055228;28;20045;-78
2022/03/12 12:03:37;;;;;;;7.78;4.28;;;18.50;25.00;;;;;;5055453;28;20041;-77
2022/03/12 12:06:04;;;;;;;5.78;4.47;;;19.50;25.40;;;;;;5055344;28;20049;-78
2022/03/12 12:08:31;;;;;;;12.13;4.07;;;20.00;24.80;;;;;;5055485;28;20060;-78
2022/03/12 12:11:01;;;;;;;6.88;3.97;;;18.90;25.10;;;;;;5054920;28;20067;-78
2022/03/12 12:13:30;;;;;;;4.75;4.25;;;20.70;25.10;;;;;;5055459;28;20103;-78
2022/03/12 12:15:58;;;;;;;61.42;43.83;;;19.30;24.60;;;;;;5054703;28;20045;-77
2022/03/12 12:18:25;;;;;;;8.13;6.28;;;20.00;25.20;;;;;;5053454;28;20048;-78
2022/03/12 12:20:52;;;;;;;6.70;4.38;;;20.30;24.50;;;;;;5054943;28;20049;-76
2022/03/12 12:23:21;;;;;;;4.95;4.25;;;20.70;24.80;;;;;;5054406;28;20083;-77
2022/03/12 12:25:48;;;;;;;6.63;4.90;;;21.40;24.30;;;;;;5075865;28;20048;-75
2022/03/12 12:28:18;;;;;;;6.15;4.47;;;21.70;23.90;;;;;;5076489;28;20052;-78
2022/03/12 12:30:46;;;;;;;5.25;4.40;;;21.40;24.10;;;;;;5078824;28;20105;-77
2022/03/12 12:33:20;;;;;;;9.38;5.38;;;21.30;24.50;;;;;;5074250;28;20137;-78
2022/03/12 12:35:48;;;;;;;5.05;4.55;;;21.40;24.20;;;;;;5051495;28;20061;-77
2022/03/12 12:38:18;;;;;;;6.15;4.70;;;20.50;24.60;;;;;;5036373;28;20045;-76
2022/03/12 12:40:47;;;;;;;7.47;5.15;;;20.70;25.40;;;;;;5033558;28;20049;-77
2022/03/12 12:43:18;;;;;;;6.20;4.35;;;21.20;24.70;;;;;;5034817;28;20073;-76
2022/03/12 12:46:08;;;;;;;7.63;5.38;;;21.20;24.40;;;;;;5034437;28;20095;-77
2022/03/12 12:48:41;;;;;;;6.20;4.68;;;22.40;24.50;;;;;;5033699;28;20049;-77
2022/03/12 12:51:12;;;;;;;5.25;4.05;;;22.10;23.70;;;;;;5034624;28;20053;-77